sensor_id;sensor_type;location;lat;lon;timestamp;pressure;altitude;pressure_sealevel;temperature;humidity
4981;BME280;2507;50.392;7.482;2023-09-18T00:02:16;99902.78;;;21.33;82.44
4981;BME280;2507;50.392;7.482;2023-09-18T00:04:42;99904.19;;;21.29;82.75
4981;BME280;2507;50.392;7.482;2023-09-18T00:07:07;99901.53;;;21.29;82.94
4981;BME280;2507;50.392;7.482;2023-09-18T00:09:32;99899.44;;;21.25;83.31
4981;BME280;2507;50.392;7.482;2023-09-18T00:11:57;99893.28;;;21.24;82.88
4981;BME280;2507;50.392;7.482;2023-09-18T00:14:23;99889.97;;;21.22;82.93
4981;BME280;2507;50.392;7.482;2023-09-18T00:16:48;99887.06;;;21.17;83.30
4981;BME280;2507;50.392;7.482;2023-09-18T00:19:14;99871.06;;;21.17;83.37
4981;BME280;2507;50.392;7.482;2023-09-18T00:21:39;99879.47;;;21.14;83.40
4981;BME280;2507;50.392;7.482;2023-09-18T00:24:04;99886.03;;;21.18;82.46
4981;BME280;2507;50.392;7.482;2023-09-18T00:26:30;99882.50;;;21.11;82.31
4981;BME280;2507;50.392;7.482;2023-09-18T00:28:55;99880.03;;;21.10;82.49
4981;BME280;2507;50.392;7.482;2023-09-18T00:31:20;99876.16;;;21.12;82.65
4981;BME280;2507;50.392;7.482;2023-09-18T00:33:46;99867.72;;;21.09;82.96
4981;BME280;2507;50.392;7.482;2023-09-18T00:36:11;99875.31;;;21.12;82.79
4981;BME280;2507;50.392;7.482;2023-09-18T00:38:37;99863.97;;;21.03;83.50
4981;BME280;2507;50.392;7.482;2023-09-18T00:41:02;99857.59;;;21.04;82.61
4981;BME280;2507;50.392;7.482;2023-09-18T00:43:28;99862.75;;;21.06;83.28
4981;BME280;2507;50.392;7.482;2023-09-18T00:45:53;99855.13;;;21.03;82.33
4981;BME280;2507;50.392;7.482;2023-09-18T00:48:19;99859.88;;;21.07;82.79
4981;BME280;2507;50.392;7.482;2023-09-18T00:50:45;99855.69;;;20.98;82.86
4981;BME280;2507;50.392;7.482;2023-09-18T00:53:14;99845.78;;;20.92;83.83
4981;BME280;2507;50.392;7.482;2023-09-18T00:55:41;99844.53;;;20.88;84.83
4981;BME280;2507;50.392;7.482;2023-09-18T00:58:07;99852.34;;;20.90;84.77
4981;BME280;2507;50.392;7.482;2023-09-18T01:00:32;99856.66;;;20.91;83.98
4981;BME280;2507;50.392;7.482;2023-09-18T01:02:58;99846.00;;;20.91;84.26
4981;BME280;2507;50.392;7.482;2023-09-18T01:05:24;99845.72;;;20.86;83.97
4981;BME280;2507;50.392;7.482;2023-09-18T01:07:50;99845.53;;;20.87;84.71
4981;BME280;2507;50.392;7.482;2023-09-18T01:10:16;99851.50;;;20.89;84.34
4981;BME280;2507;50.392;7.482;2023-09-18T01:12:58;99852.53;;;20.88;84.66
4981;BME280;2507;50.392;7.482;2023-09-18T01:15:41;99866.88;;;20.87;85.11
4981;BME280;2507;50.392;7.482;2023-09-18T01:18:10;99860.94;;;20.85;85.35
4981;BME280;2507;50.392;7.482;2023-09-18T01:20:35;99867.94;;;20.93;85.66
4981;BME280;2507;50.392;7.482;2023-09-18T01:23:01;99862.31;;;21.02;85.49
4981;BME280;2507;50.392;7.482;2023-09-18T01:25:26;99869.56;;;21.08;85.31
4981;BME280;2507;50.392;7.482;2023-09-18T01:27:51;99864.00;;;21.10;82.94
4981;BME280;2507;50.392;7.482;2023-09-18T01:30:17;99860.31;;;21.11;83.32
4981;BME280;2507;50.392;7.482;2023-09-18T01:32:44;99872.22;;;21.08;82.70
4981;BME280;2507;50.392;7.482;2023-09-18T01:35:11;99887.84;;;21.11;82.28
4981;BME280;2507;50.392;7.482;2023-09-18T01:37:37;99929.34;;;21.14;81.91
4981;BME280;2507;50.392;7.482;2023-09-18T01:40:07;99963.44;;;21.18;82.95
4981;BME280;2507;50.392;7.482;2023-09-18T01:42:33;99971.31;;;21.26;84.54
4981;BME280;2507;50.392;7.482;2023-09-18T01:45:00;99962.41;;;21.41;82.68
4981;BME280;2507;50.392;7.482;2023-09-18T01:47:25;99969.06;;;21.79;75.54
4981;BME280;2507;50.392;7.482;2023-09-18T01:49:52;99963.13;;;22.24;73.45
4981;BME280;2507;50.392;7.482;2023-09-18T01:52:17;99952.13;;;22.47;73.43
4981;BME280;2507;50.392;7.482;2023-09-18T01:54:43;99934.63;;;22.44;74.28
4981;BME280;2507;50.392;7.482;2023-09-18T01:57:08;99911.75;;;22.35;75.13
4981;BME280;2507;50.392;7.482;2023-09-18T01:59:33;99917.72;;;22.30;75.39
4981;BME280;2507;50.392;7.482;2023-09-18T02:01:59;99909.28;;;22.33;75.83
4981;BME280;2507;50.392;7.482;2023-09-18T02:04:25;99904.16;;;22.39;75.59
4981;BME280;2507;50.392;7.482;2023-09-18T02:06:51;99897.59;;;22.48;74.76
4981;BME280;2507;50.392;7.482;2023-09-18T02:09:17;99885.84;;;22.42;74.65
4981;BME280;2507;50.392;7.482;2023-09-18T02:11:45;99869.19;;;22.33;76.12
4981;BME280;2507;50.392;7.482;2023-09-18T02:14:11;99847.59;;;22.55;74.86
4981;BME280;2507;50.392;7.482;2023-09-18T02:16:38;99833.88;;;22.58;74.06
4981;BME280;2507;50.392;7.482;2023-09-18T02:19:06;99820.50;;;22.77;72.64
4981;BME280;2507;50.392;7.482;2023-09-18T02:21:32;99809.28;;;22.08;77.97
4981;BME280;2507;50.392;7.482;2023-09-18T02:23:57;99801.50;;;21.66;81.16
4981;BME280;2507;50.392;7.482;2023-09-18T02:26:24;99796.78;;;21.27;83.64
4981;BME280;2507;50.392;7.482;2023-09-18T02:28:54;99789.31;;;21.16;86.10
4981;BME280;2507;50.392;7.482;2023-09-18T02:31:20;99787.22;;;21.05;86.94
4981;BME280;2507;50.392;7.482;2023-09-18T02:33:46;99783.53;;;21.06;88.14
4981;BME280;2507;50.392;7.482;2023-09-18T02:36:12;99793.75;;;21.30;87.23
4981;BME280;2507;50.392;7.482;2023-09-18T02:38:37;99781.47;;;21.49;86.06
4981;BME280;2507;50.392;7.482;2023-09-18T02:41:03;99798.59;;;21.61;84.79
4981;BME280;2507;50.392;7.482;2023-09-18T02:43:28;99813.22;;;21.65;84.14
4981;BME280;2507;50.392;7.482;2023-09-18T02:45:53;99807.44;;;21.62;84.87
4981;BME280;2507;50.392;7.482;2023-09-18T02:48:19;99789.97;;;21.59;84.81
4981;BME280;2507;50.392;7.482;2023-09-18T02:50:45;99770.44;;;21.59;84.58
4981;BME280;2507;50.392;7.482;2023-09-18T02:53:18;99771.47;;;21.58;84.48
4981;BME280;2507;50.392;7.482;2023-09-18T02:55:45;99787.13;;;21.67;83.69
4981;BME280;2507;50.392;7.482;2023-09-18T02:58:11;99799.44;;;21.62;84.07
4981;BME280;2507;50.392;7.482;2023-09-18T03:00:43;99813.66;;;21.69;83.77
4981;BME280;2507;50.392;7.482;2023-09-18T03:03:09;99808.09;;;21.70;82.82
4981;BME280;2507;50.392;7.482;2023-09-18T03:05:35;99830.69;;;21.68;82.98
4981;BME280;2507;50.392;7.482;2023-09-18T03:08:00;99827.09;;;21.82;82.27
4981;BME280;2507;50.392;7.482;2023-09-18T03:10:26;99827.22;;;21.74;83.06
4981;BME280;2507;50.392;7.482;2023-09-18T03:12:51;99823.69;;;21.67;83.38
4981;BME280;2507;50.392;7.482;2023-09-18T03:15:17;99829.25;;;21.72;83.05
4981;BME280;2507;50.392;7.482;2023-09-18T03:17:42;99821.84;;;21.67;83.89
4981;BME280;2507;50.392;7.482;2023-09-18T03:20:08;99815.69;;;21.67;83.24
4981;BME280;2507;50.392;7.482;2023-09-18T03:22:34;99836.06;;;21.74;83.04
4981;BME280;2507;50.392;7.482;2023-09-18T03:24:59;99828.84;;;21.68;83.32
4981;BME280;2507;50.392;7.482;2023-09-18T03:27:24;99840.56;;;21.74;82.60
4981;BME280;2507;50.392;7.482;2023-09-18T03:29:54;99834.75;;;21.64;83.21
4981;BME280;2507;50.392;7.482;2023-09-18T03:32:20;99825.47;;;21.53;83.50
4981;BME280;2507;50.392;7.482;2023-09-18T03:34:46;99820.09;;;21.47;83.78
4981;BME280;2507;50.392;7.482;2023-09-18T03:37:11;99822.16;;;21.51;83.01
4981;BME280;2507;50.392;7.482;2023-09-18T03:39:36;99806.00;;;21.59;81.94
4981;BME280;2507;50.392;7.482;2023-09-18T03:42:01;99813.72;;;21.48;81.95
4981;BME280;2507;50.392;7.482;2023-09-18T03:44:27;99818.84;;;21.43;82.60
4981;BME280;2507;50.392;7.482;2023-09-18T03:46:53;99810.91;;;21.56;82.04
4981;BME280;2507;50.392;7.482;2023-09-18T03:49:18;99803.88;;;21.48;82.25
4981;BME280;2507;50.392;7.482;2023-09-18T03:51:43;99805.22;;;21.31;83.67
4981;BME280;2507;50.392;7.482;2023-09-18T03:54:09;99809.03;;;21.15;85.09
4981;BME280;2507;50.392;7.482;2023-09-18T03:56:35;99811.31;;;21.18;85.73
4981;BME280;2507;50.392;7.482;2023-09-18T03:59:00;99795.22;;;21.40;83.48
4981;BME280;2507;50.392;7.482;2023-09-18T04:01:26;99813.16;;;21.52;82.40
4981;BME280;2507;50.392;7.482;2023-09-18T04:03:52;99802.28;;;21.54;81.90
4981;BME280;2507;50.392;7.482;2023-09-18T04:06:20;99797.72;;;21.48;82.48
4981;BME280;2507;50.392;7.482;2023-09-18T04:08:45;99788.91;;;21.54;82.00
4981;BME280;2507;50.392;7.482;2023-09-18T04:11:11;99777.19;;;21.55;81.13
4981;BME280;2507;50.392;7.482;2023-09-18T04:13:36;99767.91;;;21.44;82.01
4981;BME280;2507;50.392;7.482;2023-09-18T04:16:03;99780.41;;;21.37;82.77
4981;BME280;2507;50.392;7.482;2023-09-18T04:18:29;99772.59;;;21.29;82.87
4981;BME280;2507;50.392;7.482;2023-09-18T04:20:54;99766.53;;;21.14;84.55
4981;BME280;2507;50.392;7.482;2023-09-18T04:23:24;99757.97;;;21.25;83.77
4981;BME280;2507;50.392;7.482;2023-09-18T04:25:51;99748.38;;;21.37;83.05
4981;BME280;2507;50.392;7.482;2023-09-18T04:28:19;99746.13;;;21.34;82.41
4981;BME280;2507;50.392;7.482;2023-09-18T04:30:45;99738.25;;;21.26;83.19
4981;BME280;2507;50.392;7.482;2023-09-18T04:33:12;99733.75;;;21.26;84.07
4981;BME280;2507;50.392;7.482;2023-09-18T04:35:38;99721.81;;;21.22;84.14
4981;BME280;2507;50.392;7.482;2023-09-18T04:38:05;99717.53;;;21.28;84.37
4981;BME280;2507;50.392;7.482;2023-09-18T04:40:31;99719.56;;;21.26;83.84
4981;BME280;2507;50.392;7.482;2023-09-18T04:45:22;99703.13;;;21.22;84.09
4981;BME280;2507;50.392;7.482;2023-09-18T04:47:48;99685.84;;;21.12;83.93
4981;BME280;2507;50.392;7.482;2023-09-18T04:50:13;99683.34;;;21.04;85.12
4981;BME280;2507;50.392;7.482;2023-09-18T04:52:38;99689.91;;;21.01;85.33
4981;BME280;2507;50.392;7.482;2023-09-18T04:55:09;99689.28;;;20.99;85.40
4981;BME280;2507;50.392;7.482;2023-09-18T04:57:34;99713.72;;;21.03;84.88
4981;BME280;2507;50.392;7.482;2023-09-18T05:00:01;99731.34;;;21.04;84.38
4981;BME280;2507;50.392;7.482;2023-09-18T05:02:26;99734.66;;;21.06;84.38
4981;BME280;2507;50.392;7.482;2023-09-18T05:04:51;99731.22;;;21.12;84.24
4981;BME280;2507;50.392;7.482;2023-09-18T05:07:17;99736.41;;;21.26;81.83
4981;BME280;2507;50.392;7.482;2023-09-18T05:09:42;99743.81;;;21.31;81.28
4981;BME280;2507;50.392;7.482;2023-09-18T05:12:09;99755.81;;;21.42;81.18
4981;BME280;2507;50.392;7.482;2023-09-18T05:14:39;99757.03;;;21.46;80.41
4981;BME280;2507;50.392;7.482;2023-09-18T05:17:05;99759.69;;;21.46;79.47
4981;BME280;2507;50.392;7.482;2023-09-18T05:19:30;99762.22;;;21.54;79.09
4981;BME280;2507;50.392;7.482;2023-09-18T05:21:55;99783.00;;;21.58;78.81
4981;BME280;2507;50.392;7.482;2023-09-18T05:24:21;99790.38;;;21.63;78.63
4981;BME280;2507;50.392;7.482;2023-09-18T05:26:51;99801.34;;;21.74;77.08
4981;BME280;2507;50.392;7.482;2023-09-18T05:29:18;99781.88;;;21.87;76.55
4981;BME280;2507;50.392;7.482;2023-09-18T05:31:44;99782.09;;;21.85;76.42
4981;BME280;2507;50.392;7.482;2023-09-18T05:34:11;99776.53;;;21.93;75.80
4981;BME280;2507;50.392;7.482;2023-09-18T05:36:36;99768.31;;;21.95;75.91
4981;BME280;2507;50.392;7.482;2023-09-18T05:39:01;99770.78;;;21.90;76.37
4981;BME280;2507;50.392;7.482;2023-09-18T05:41:26;99772.88;;;21.94;75.87
4981;BME280;2507;50.392;7.482;2023-09-18T05:43:54;99771.00;;;21.95;76.52
4981;BME280;2507;50.392;7.482;2023-09-18T05:46:19;99791.19;;;22.17;75.18
4981;BME280;2507;50.392;7.482;2023-09-18T05:48:45;99799.88;;;22.32;74.06
4981;BME280;2507;50.392;7.482;2023-09-18T05:51:10;99804.81;;;22.48;73.34
4981;BME280;2507;50.392;7.482;2023-09-18T05:53:35;99809.13;;;22.43;73.21
4981;BME280;2507;50.392;7.482;2023-09-18T05:56:00;99809.53;;;22.46;72.91
4981;BME280;2507;50.392;7.482;2023-09-18T05:58:29;99807.13;;;22.58;71.96
4981;BME280;2507;50.392;7.482;2023-09-18T06:00:57;99806.06;;;22.52;72.55
4981;BME280;2507;50.392;7.482;2023-09-18T06:03:23;99798.09;;;22.65;72.11
4981;BME280;2507;50.392;7.482;2023-09-18T06:05:48;99785.09;;;22.62;71.69
4981;BME280;2507;50.392;7.482;2023-09-18T06:08:14;99789.19;;;22.52;72.43
4981;BME280;2507;50.392;7.482;2023-09-18T06:10:39;99804.81;;;22.48;72.50
4981;BME280;2507;50.392;7.482;2023-09-18T06:13:05;99812.00;;;22.48;73.45
4981;BME280;2507;50.392;7.482;2023-09-18T06:15:31;99811.84;;;22.56;72.87
4981;BME280;2507;50.392;7.482;2023-09-18T06:17:57;99804.81;;;22.48;73.16
4981;BME280;2507;50.392;7.482;2023-09-18T06:20:22;99800.50;;;22.47;73.36
4981;BME280;2507;50.392;7.482;2023-09-18T06:22:47;99785.09;;;22.56;72.81
4981;BME280;2507;50.392;7.482;2023-09-18T06:25:13;99784.03;;;22.50;73.04
4981;BME280;2507;50.392;7.482;2023-09-18T06:27:40;99786.31;;;22.47;74.27
4981;BME280;2507;50.392;7.482;2023-09-18T06:30:06;99794.34;;;22.47;73.95
4981;BME280;2507;50.392;7.482;2023-09-18T06:32:31;99807.50;;;22.42;73.55
4981;BME280;2507;50.392;7.482;2023-09-18T06:34:57;99802.34;;;22.40;73.41
4981;BME280;2507;50.392;7.482;2023-09-18T06:37:25;99810.97;;;22.42;73.50
4981;BME280;2507;50.392;7.482;2023-09-18T06:39:50;99806.25;;;22.44;73.15
4981;BME280;2507;50.392;7.482;2023-09-18T06:42:16;99812.88;;;22.61;72.25
4981;BME280;2507;50.392;7.482;2023-09-18T06:44:41;99815.78;;;22.60;72.51
4981;BME280;2507;50.392;7.482;2023-09-18T06:47:07;99806.94;;;22.72;71.30
4981;BME280;2507;50.392;7.482;2023-09-18T06:49:32;99821.94;;;22.73;71.70
4981;BME280;2507;50.392;7.482;2023-09-18T06:51:57;99846.84;;;22.80;71.19
4981;BME280;2507;50.392;7.482;2023-09-18T06:54:23;99842.50;;;22.73;71.87
4981;BME280;2507;50.392;7.482;2023-09-18T06:56:48;99828.34;;;22.72;71.49
4981;BME280;2507;50.392;7.482;2023-09-18T06:59:13;99823.41;;;22.76;70.99
4981;BME280;2507;50.392;7.482;2023-09-18T07:01:39;99828.53;;;22.71;71.41
4981;BME280;2507;50.392;7.482;2023-09-18T07:04:06;99817.63;;;22.66;70.75
4981;BME280;2507;50.392;7.482;2023-09-18T07:06:31;99829.94;;;22.60;71.42
4981;BME280;2507;50.392;7.482;2023-09-18T07:08:56;99826.41;;;22.53;71.52
4981;BME280;2507;50.392;7.482;2023-09-18T07:11:22;99836.97;;;22.74;70.47
4981;BME280;2507;50.392;7.482;2023-09-18T07:13:47;99844.97;;;23.00;69.42
4981;BME280;2507;50.392;7.482;2023-09-18T07:16:13;99829.16;;;22.79;70.16
4981;BME280;2507;50.392;7.482;2023-09-18T07:18:38;99839.66;;;22.81;69.95
4981;BME280;2507;50.392;7.482;2023-09-18T07:21:03;99835.34;;;22.80;69.73
4981;BME280;2507;50.392;7.482;2023-09-18T07:23:29;99832.63;;;22.73;69.75
4981;BME280;2507;50.392;7.482;2023-09-18T07:25:54;99842.13;;;22.82;69.30
4981;BME280;2507;50.392;7.482;2023-09-18T07:28:19;99856.31;;;22.70;69.48
4981;BME280;2507;50.392;7.482;2023-09-18T07:30:48;99857.97;;;22.77;69.65
4981;BME280;2507;50.392;7.482;2023-09-18T07:33:14;99863.53;;;22.89;68.96
4981;BME280;2507;50.392;7.482;2023-09-18T07:35:46;99868.25;;;22.93;68.22
4981;BME280;2507;50.392;7.482;2023-09-18T07:38:12;99867.22;;;22.88;69.06
4981;BME280;2507;50.392;7.482;2023-09-18T07:40:37;99862.91;;;23.06;68.02
4981;BME280;2507;50.392;7.482;2023-09-18T07:43:03;99880.81;;;23.06;68.11
4981;BME280;2507;50.392;7.482;2023-09-18T07:45:28;99873.00;;;23.04;68.13
4981;BME280;2507;50.392;7.482;2023-09-18T07:47:53;99864.56;;;23.01;68.08
4981;BME280;2507;50.392;7.482;2023-09-18T07:50:18;99864.34;;;23.15;67.14
4981;BME280;2507;50.392;7.482;2023-09-18T07:52:44;99871.75;;;23.26;66.58
4981;BME280;2507;50.392;7.482;2023-09-18T07:55:09;99884.72;;;23.16;66.60
4981;BME280;2507;50.392;7.482;2023-09-18T07:57:34;99896.50;;;23.09;66.72
4981;BME280;2507;50.392;7.482;2023-09-18T08:00:00;99907.19;;;23.02;66.97
4981;BME280;2507;50.392;7.482;2023-09-18T08:02:36;99924.28;;;23.14;66.73
4981;BME280;2507;50.392;7.482;2023-09-18T08:05:02;99912.94;;;23.19;66.51
4981;BME280;2507;50.392;7.482;2023-09-18T08:07:30;99905.31;;;23.22;66.23
4981;BME280;2507;50.392;7.482;2023-09-18T08:09:55;99897.47;;;23.27;65.89
4981;BME280;2507;50.392;7.482;2023-09-18T08:12:21;99898.75;;;23.32;65.78
4981;BME280;2507;50.392;7.482;2023-09-18T08:14:46;99905.31;;;23.22;65.68
4981;BME280;2507;50.392;7.482;2023-09-18T08:17:11;99901.22;;;23.07;65.93
4981;BME280;2507;50.392;7.482;2023-09-18T08:19:37;99900.59;;;22.98;66.28
4981;BME280;2507;50.392;7.482;2023-09-18T08:22:03;99912.72;;;23.07;66.46
4981;BME280;2507;50.392;7.482;2023-09-18T08:24:29;99919.94;;;23.26;65.81
4981;BME280;2507;50.392;7.482;2023-09-18T08:26:54;99927.41;;;23.38;65.38
4981;BME280;2507;50.392;7.482;2023-09-18T08:29:21;99936.88;;;23.34;64.81
4981;BME280;2507;50.392;7.482;2023-09-18T08:31:46;99927.78;;;23.35;64.66
4981;BME280;2507;50.392;7.482;2023-09-18T08:34:12;99918.91;;;23.27;65.75
4981;BME280;2507;50.392;7.482;2023-09-18T08:36:37;99929.88;;;23.39;65.07
4981;BME280;2507;50.392;7.482;2023-09-18T08:39:03;99943.47;;;23.38;65.37
4981;BME280;2507;50.392;7.482;2023-09-18T08:41:31;99946.72;;;23.26;65.19
4981;BME280;2507;50.392;7.482;2023-09-18T08:44:01;99955.38;;;23.28;66.01
4981;BME280;2507;50.392;7.482;2023-09-18T08:46:29;99948.81;;;23.38;65.26
4981;BME280;2507;50.392;7.482;2023-09-18T08:48:55;99946.75;;;23.40;65.22
4981;BME280;2507;50.392;7.482;2023-09-18T08:51:22;99948.59;;;23.52;65.39
4981;BME280;2507;50.392;7.482;2023-09-18T08:53:48;99949.41;;;23.59;64.33
4981;BME280;2507;50.392;7.482;2023-09-18T08:56:14;99951.88;;;23.61;64.42
4981;BME280;2507;50.392;7.482;2023-09-18T08:58:41;99957.84;;;23.69;63.97
4981;BME280;2507;50.392;7.482;2023-09-18T09:01:11;99970.59;;;23.80;63.63
4981;BME280;2507;50.392;7.482;2023-09-18T09:03:41;99963.63;;;23.79;63.92
4981;BME280;2507;50.392;7.482;2023-09-18T09:06:13;99953.09;;;23.78;63.57
4981;BME280;2507;50.392;7.482;2023-09-18T09:08:38;99946.72;;;23.72;63.44
4981;BME280;2507;50.392;7.482;2023-09-18T09:11:05;99957.88;;;23.63;64.07
4981;BME280;2507;50.392;7.482;2023-09-18T09:13:30;99953.50;;;23.81;64.01
4981;BME280;2507;50.392;7.482;2023-09-18T09:15:57;99950.81;;;24.01;62.70
4981;BME280;2507;50.392;7.482;2023-09-18T09:18:25;99972.59;;;24.24;61.91
4981;BME280;2507;50.392;7.482;2023-09-18T09:21:01;99977.94;;;24.24;61.65
4981;BME280;2507;50.392;7.482;2023-09-18T09:23:45;99962.72;;;24.18;62.56
4981;BME280;2507;50.392;7.482;2023-09-18T09:26:15;99960.78;;;24.32;61.47
4981;BME280;2507;50.392;7.482;2023-09-18T09:28:42;99953.53;;;24.39;61.30
4981;BME280;2507;50.392;7.482;2023-09-18T09:31:08;99943.28;;;24.29;61.22
4981;BME280;2507;50.392;7.482;2023-09-18T09:33:34;99951.38;;;24.16;61.74
4981;BME280;2507;50.392;7.482;2023-09-18T09:35:59;99946.25;;;23.95;62.89
4981;BME280;2507;50.392;7.482;2023-09-18T09:38:29;99950.75;;;24.07;62.47
4981;BME280;2507;50.392;7.482;2023-09-18T09:40:57;99954.03;;;24.22;62.21
4981;BME280;2507;50.392;7.482;2023-09-18T09:43:26;99959.13;;;24.37;61.55
4981;BME280;2507;50.392;7.482;2023-09-18T09:45:57;99958.56;;;24.22;61.42
4981;BME280;2507;50.392;7.482;2023-09-18T09:48:23;99967.66;;;24.21;62.12
4981;BME280;2507;50.392;7.482;2023-09-18T09:50:49;99956.75;;;24.16;61.94
4981;BME280;2507;50.392;7.482;2023-09-18T09:53:16;99963.13;;;24.15;61.85
4981;BME280;2507;50.392;7.482;2023-09-18T09:55:41;99970.97;;;23.97;62.27
4981;BME280;2507;50.392;7.482;2023-09-18T09:58:08;99982.31;;;23.99;62.32
4981;BME280;2507;50.392;7.482;2023-09-18T10:03:12;99964.41;;;23.99;61.89
4981;BME280;2507;50.392;7.482;2023-09-18T10:05:39;99960.25;;;24.10;62.04
4981;BME280;2507;50.392;7.482;2023-09-18T10:08:10;99969.94;;;24.11;62.10
4981;BME280;2507;50.392;7.482;2023-09-18T10:10:39;99973.84;;;24.15;61.95
4981;BME280;2507;50.392;7.482;2023-09-18T10:15:48;99989.94;;;24.15;62.16
4981;BME280;2507;50.392;7.482;2023-09-18T10:18:27;100003.16;;;24.10;61.66
4981;BME280;2507;50.392;7.482;2023-09-18T10:24:28;100005.84;;;23.97;62.63
4981;BME280;2507;50.392;7.482;2023-09-18T10:29:20;100000.50;;;24.03;62.53
4981;BME280;2507;50.392;7.482;2023-09-18T10:31:50;100008.13;;;23.93;62.40
4981;BME280;2507;50.392;7.482;2023-09-18T10:34:16;100003.19;;;24.03;62.38
4981;BME280;2507;50.392;7.482;2023-09-18T10:36:42;99986.66;;;24.13;62.19
4981;BME280;2507;50.392;7.482;2023-09-18T10:39:10;99983.25;;;24.37;61.17
4981;BME280;2507;50.392;7.482;2023-09-18T10:41:38;99996.34;;;24.71;60.05
4981;BME280;2507;50.392;7.482;2023-09-18T10:44:05;99993.44;;;24.79;60.02
4981;BME280;2507;50.392;7.482;2023-09-18T10:46:31;99976.47;;;24.85;59.51
4981;BME280;2507;50.392;7.482;2023-09-18T10:48:58;99987.91;;;25.05;59.27
4981;BME280;2507;50.392;7.482;2023-09-18T10:51:24;99981.00;;;25.16;58.51
4981;BME280;2507;50.392;7.482;2023-09-18T10:53:50;99984.69;;;25.21;58.35
4981;BME280;2507;50.392;7.482;2023-09-18T10:56:19;99996.44;;;25.20;58.12
4981;BME280;2507;50.392;7.482;2023-09-18T10:58:45;99986.06;;;25.31;58.38
4981;BME280;2507;50.392;7.482;2023-09-18T11:01:13;99983.94;;;25.39;57.13
4981;BME280;2507;50.392;7.482;2023-09-18T11:03:39;99995.34;;;25.03;57.83
4981;BME280;2507;50.392;7.482;2023-09-18T11:06:11;99987.91;;;25.05;58.07
4981;BME280;2507;50.392;7.482;2023-09-18T11:08:47;99992.06;;;25.01;58.45
4981;BME280;2507;50.392;7.482;2023-09-18T11:11:17;99988.22;;;25.15;58.44
4981;BME280;2507;50.392;7.482;2023-09-18T11:13:50;99980.78;;;25.17;58.60
4981;BME280;2507;50.392;7.482;2023-09-18T11:16:33;99985.88;;;25.25;58.10
4981;BME280;2507;50.392;7.482;2023-09-18T11:21:33;99968.25;;;25.61;57.08
4981;BME280;2507;50.392;7.482;2023-09-18T11:24:07;99961.41;;;26.01;55.89
4981;BME280;2507;50.392;7.482;2023-09-18T11:26:37;99941.38;;;25.97;55.44
4981;BME280;2507;50.392;7.482;2023-09-18T11:29:13;99943.88;;;26.35;54.88
4981;BME280;2507;50.392;7.482;2023-09-18T11:34:33;99949.94;;;26.30;54.89
4981;BME280;2507;50.392;7.482;2023-09-18T11:37:22;99948.63;;;26.69;54.03
4981;BME280;2507;50.392;7.482;2023-09-18T11:39:50;99947.47;;;26.76;53.45
4981;BME280;2507;50.392;7.482;2023-09-18T11:42:20;99942.44;;;26.80;52.57
4981;BME280;2507;50.392;7.482;2023-09-18T11:44:52;99953.00;;;26.63;53.84
4981;BME280;2507;50.392;7.482;2023-09-18T11:47:19;99960.97;;;26.40;53.05
4981;BME280;2507;50.392;7.482;2023-09-18T11:49:56;99965.09;;;26.24;54.24
4981;BME280;2507;50.392;7.482;2023-09-18T11:52:25;99960.97;;;26.40;54.08
4981;BME280;2507;50.392;7.482;2023-09-18T11:54:51;99961.78;;;26.41;54.65
4981;BME280;2507;50.392;7.482;2023-09-18T11:57:18;99952.06;;;26.58;54.00
4981;BME280;2507;50.392;7.482;2023-09-18T11:59:44;99964.19;;;26.96;53.06
4981;BME280;2507;50.392;7.482;2023-09-18T12:02:12;99944.25;;;26.97;53.10
4981;BME280;2507;50.392;7.482;2023-09-18T12:04:45;99937.44;;;26.83;53.06
4981;BME280;2507;50.392;7.482;2023-09-18T12:07:12;99928.72;;;26.70;52.66
4981;BME280;2507;50.392;7.482;2023-09-18T12:09:37;99917.75;;;26.83;52.55
4981;BME280;2507;50.392;7.482;2023-09-18T12:12:05;99928.25;;;26.55;52.83
4981;BME280;2507;50.392;7.482;2023-09-18T12:14:32;99954.22;;;26.49;52.69
4981;BME280;2507;50.392;7.482;2023-09-18T12:16:59;99957.44;;;26.58;53.64
4981;BME280;2507;50.392;7.482;2023-09-18T12:19:25;99957.84;;;27.02;52.14
4981;BME280;2507;50.392;7.482;2023-09-18T12:21:51;99949.19;;;27.12;51.68
4981;BME280;2507;50.392;7.482;2023-09-18T12:24:25;99935.63;;;26.77;51.35
4981;BME280;2507;50.392;7.482;2023-09-18T12:26:52;99941.88;;;26.60;52.54
4981;BME280;2507;50.392;7.482;2023-09-18T12:29:18;99939.47;;;26.70;52.15
4981;BME280;2507;50.392;7.482;2023-09-18T12:31:43;99918.94;;;26.98;51.15
4981;BME280;2507;50.392;7.482;2023-09-18T12:34:19;99927.06;;;27.21;50.85
4981;BME280;2507;50.392;7.482;2023-09-18T12:36:47;99911.16;;;27.32;50.73
4981;BME280;2507;50.392;7.482;2023-09-18T12:39:13;99918.44;;;27.43;50.10
4981;BME280;2507;50.392;7.482;2023-09-18T12:41:41;99912.59;;;27.34;50.02
4981;BME280;2507;50.392;7.482;2023-09-18T12:44:08;99914.31;;;27.29;50.75
4981;BME280;2507;50.392;7.482;2023-09-18T12:46:34;99908.22;;;27.33;50.02
4981;BME280;2507;50.392;7.482;2023-09-18T12:49:14;99911.59;;;27.17;49.74
4981;BME280;2507;50.392;7.482;2023-09-18T12:51:40;99921.28;;;26.95;51.00
4981;BME280;2507;50.392;7.482;2023-09-18T12:54:05;99909.81;;;27.11;50.97
4981;BME280;2507;50.392;7.482;2023-09-18T12:56:31;99912.19;;;27.19;49.87
4981;BME280;2507;50.392;7.482;2023-09-18T12:58:58;99903.53;;;27.29;50.53
4981;BME280;2507;50.392;7.482;2023-09-18T13:01:24;99905.78;;;27.32;50.50
4981;BME280;2507;50.392;7.482;2023-09-18T13:03:49;99910.81;;;27.40;49.98
4981;BME280;2507;50.392;7.482;2023-09-18T13:06:19;99891.22;;;27.44;49.91
4981;BME280;2507;50.392;7.482;2023-09-18T13:08:45;99887.50;;;27.34;49.70
4981;BME280;2507;50.392;7.482;2023-09-18T13:11:11;99877.19;;;27.31;50.47
4981;BME280;2507;50.392;7.482;2023-09-18T13:13:39;99876.56;;;27.29;50.23
4981;BME280;2507;50.392;7.482;2023-09-18T13:16:06;99883.28;;;27.38;50.07
4981;BME280;2507;50.392;7.482;2023-09-18T13:18:32;99878.59;;;27.45;49.33
4981;BME280;2507;50.392;7.482;2023-09-18T13:20:57;99882.78;;;27.41;49.54
4981;BME280;2507;50.392;7.482;2023-09-18T13:23:31;99870.25;;;27.46;48.74
4981;BME280;2507;50.392;7.482;2023-09-18T13:26:05;99870.94;;;27.76;48.54
4981;BME280;2507;50.392;7.482;2023-09-18T13:28:31;99861.28;;;27.80;48.17
4981;BME280;2507;50.392;7.482;2023-09-18T13:30:59;99868.09;;;27.71;48.35
4981;BME280;2507;50.392;7.482;2023-09-18T13:33:25;99860.00;;;27.94;48.46
4981;BME280;2507;50.392;7.482;2023-09-18T13:35:51;99870.03;;;28.10;47.50
4981;BME280;2507;50.392;7.482;2023-09-18T13:38:18;99856.53;;;28.10;46.33
4981;BME280;2507;50.392;7.482;2023-09-18T13:40:46;99859.63;;;28.02;46.89